Time;durP1;ratioP1;P1;durP2;ratioP2;P2;SDS_P1;SDS_P2;PMS_P1;PMS_P2;Temp;Humidity;BMP_temperature;BMP_pressure;BME280_temperature;BME280_humidity;BME280_pressure;Samples;Min_cycle;Max_cycle;Signal;HPM_P1;HPM_P2
2022/06/12 00:02:20;;;;;;;249.23;160.98;;;;;;;;;;5042832;28;20212;-64
2022/06/12 00:04:46;;;;;;;272.80;177.23;;;19.60;10.50;;;;;;5036056;28;20293;-65
2022/06/12 00:07:12;;;;;;;243.98;159.27;;;;;;;;;;5035932;28;20215;-65
2022/06/12 00:09:38;;;;;;;291.95;175.73;;;;;;;;;;5036069;28;20215;-64
2022/06/12 00:12:04;;;;;;;273.27;171.63;;;;;;;;;;5038719;28;20235;-65
2022/06/12 00:14:30;;;;;;;255.18;160.05;;;;;;;;;;5038346;28;20184;-65
2022/06/12 00:16:56;;;;;;;275.75;169.93;;;;;;;;;;5037744;28;20261;-65
2022/06/12 00:19:22;;;;;;;240.40;151.73;;;;;;;;;;5040839;28;20216;-65
2022/06/12 00:21:48;;;;;;;263.83;165.20;;;19.10;22.10;;;;;;5037290;28;20219;-65
2022/06/12 00:24:17;;;;;;;281.45;167.38;;;19.00;25.60;;;;;;5031692;28;20623;-64
2022/06/12 00:26:49;;;;;;;296.88;178.25;;;18.90;29.40;;;;;;5039036;28;20211;-66
2022/06/12 00:29:28;;;;;;;293.83;171.02;;;18.90;37.40;;;;;;5038475;28;20183;-65
2022/06/12 00:32:01;;;;;;;285.70;174.35;;;18.80;39.20;;;;;;5016289;28;20211;-64
2022/06/12 00:34:32;;;;;;;255.82;154.50;;;18.80;45.60;;;;;;5035827;28;20298;-66
2022/06/12 00:36:59;;;;;;;208.75;139.40;;;18.80;46.50;;;;;;5030829;28;20250;-65
2022/06/12 00:39:26;;;;;;;218.82;141.18;;;18.90;41.80;;;;;;5037537;28;21224;-65
2022/06/12 00:41:56;;;;;;;271.25;167.90;;;18.60;58.00;;;;;;5041878;28;20180;-65
2022/06/12 00:44:28;;;;;;;251.30;151.32;;;18.60;54.60;;;;;;5034418;28;20203;-65
2022/06/12 00:46:57;;;;;;;252.55;157.23;;;18.20;50.70;;;;;;5030624;28;20218;-65
2022/06/12 00:49:25;;;;;;;244.68;149.43;;;18.60;77.60;;;;;;5033068;28;20254;-65
2022/06/12 00:51:56;;;;;;;236.85;151.75;;;22.20;63.30;;;;;;5042907;28;20708;-65
2022/06/12 00:54:24;;;;;;;269.77;158.70;;;18.50;65.00;;;;;;5031135;28;20226;-65
2022/06/12 00:56:54;;;;;;;251.95;157.82;;;18.30;62.40;;;;;;5037700;28;20180;-64
2022/06/12 00:59:34;;;;;;;262.88;156.02;;;18.20;62.30;;;;;;5033333;28;20185;-65
2022/06/12 01:02:00;;;;;;;228.30;146.43;;;;;;;;;;5021815;28;20211;-65
2022/06/12 01:07:15;;;;;;;205.50;132.30;;;18.10;76.80;;;;;;5033580;28;20230;-64
2022/06/12 01:09:44;;;;;;;214.15;138.50;;;18.10;76.00;;;;;;5031446;28;20249;-65
2022/06/12 01:12:13;;;;;;;246.43;151.27;;;18.00;79.20;;;;;;5041690;28;20254;-64
2022/06/12 01:14:47;;;;;;;196.35;131.18;;;18.00;83.80;;;;;;5041587;28;20187;-65
2022/06/12 01:17:14;;;;;;;238.88;144.93;;;18.00;87.70;;;;;;5034229;28;20168;-65
2022/06/12 01:19:54;;;;;;;227.02;143.75;;;18.00;99.50;;;;;;5039040;28;20582;-65
2022/06/12 01:22:26;;;;;;;213.50;135.18;;;18.10;99.90;;;;;;5038469;28;20407;-65
2022/06/12 01:25:33;;;;;;;196.35;133.35;;;18.20;99.90;;;;;;5034187;28;20208;-65
2022/06/12 01:28:09;;;;;;;223.82;141.60;;;17.90;92.90;;;;;;5037072;28;20204;-65
2022/06/12 01:30:47;;;;;;;210.80;134.73;;;20.10;94.50;;;;;;5034486;28;20224;-65
2022/06/12 01:33:33;;;;;;;255.68;154.52;;;17.90;94.50;;;;;;5032816;28;20318;-65
2022/06/12 01:36:17;;;;;;;214.93;135.20;;;17.80;97.70;;;;;;5033547;28;20215;-65
2022/06/12 01:39:06;;;;;;;221.48;144.45;;;17.90;99.90;;;;;;5039192;28;20288;-65
2022/06/12 01:41:46;;;;;;;239.35;144.43;;;17.80;95.10;;;;;;5033865;28;20176;-65
2022/06/12 01:44:37;;;;;;;232.95;143.07;;;17.60;94.50;;;;;;5032905;28;20235;-64
2022/06/12 01:47:16;;;;;;;242.45;145.13;;;17.60;96.60;;;;;;5031963;28;20231;-65
2022/06/12 01:49:51;;;;;;;241.55;148.30;;;17.60;97.30;;;;;;5030258;28;20306;-64
2022/06/12 01:52:32;;;;;;;237.80;144.00;;;17.50;99.40;;;;;;5035840;28;20215;-65
2022/06/12 01:55:21;;;;;;;188.55;126.15;;;17.50;99.90;;;;;;5037538;28;20311;-65
2022/06/12 01:58:00;;;;;;;265.83;154.57;;;17.40;99.90;;;;;;5033702;28;20319;-65
2022/06/12 02:00:28;;;;;;;225.18;137.50;;;17.40;99.90;;;;;;5035137;28;20216;-65
2022/06/12 02:03:02;;;;;;;219.82;140.65;;;17.40;99.90;;;;;;5040418;28;20234;-65
2022/06/12 02:05:53;;;;;;;241.77;142.45;;;17.40;99.90;;;;;;5033023;28;20764;-65
2022/06/12 02:08:27;;;;;;;191.88;126.00;;;17.40;99.90;;;;;;5040463;28;21111;-65
2022/06/12 02:13:11;;;;;;;220.75;140.77;;;17.40;99.90;;;;;;5039815;28;20211;-65
2022/06/12 02:13:53;;;;;;;259.88;154.13;;;17.30;99.90;;;;;;5034172;28;20219;-65
2022/06/12 02:16:24;;;;;;;213.20;131.70;;;17.30;99.90;;;;;;5041236;28;20215;-65
2022/06/12 02:18:53;;;;;;;198.18;131.13;;;17.20;99.90;;;;;;5036534;28;20211;-65
2022/06/12 02:21:28;;;;;;;230.57;139.55;;;17.10;99.90;;;;;;5043603;28;20218;-65
2022/06/12 02:24:08;;;;;;;216.70;137.98;;;17.10;99.90;;;;;;5032678;28;20239;-65
2022/06/12 02:26:46;;;;;;;211.18;135.82;;;17.10;99.90;;;;;;5033829;28;20178;-64
2022/06/12 02:29:18;;;;;;;222.13;138.90;;;17.20;99.90;;;;;;5042278;28;20564;-65
2022/06/12 02:31:48;;;;;;;216.48;139.52;;;17.20;99.90;;;;;;5042142;28;20216;-65
2022/06/12 02:34:24;;;;;;;235.73;143.07;;;17.20;99.90;;;;;;5032298;28;20318;-65
2022/06/12 02:36:55;;;;;;;260.50;152.45;;;17.20;99.90;;;;;;5034661;28;20207;-65
2022/06/12 02:39:33;;;;;;;220.88;138.73;;;17.00;99.90;;;;;;5034262;28;20208;-65
2022/06/12 02:46:36;;;;;;;199.50;134.15;;;17.00;99.90;;;;;;5025700;27;20809;-53
2022/06/12 02:49:02;;;;;;;173.52;126.47;;;17.00;99.90;;;;;;5011157;28;20228;-53
2022/06/12 02:51:56;;;;;;;184.43;125.18;;;17.00;99.90;;;;;;5017235;28;20218;-52
2022/06/12 02:54:22;;;;;;;151.43;116.85;;;17.00;99.90;;;;;;5017518;28;20315;-53
2022/06/12 02:56:48;;;;;;;196.60;131.02;;;;;;;;;;5017514;28;20699;-52
2022/06/12 02:59:38;;;;;;;205.30;133.38;;;16.90;99.90;;;;;;5013628;28;20664;-52
2022/06/12 03:02:18;;;;;;;163.98;119.10;;;16.90;99.90;;;;;;5014048;28;20228;-53
2022/06/12 03:05:11;;;;;;;168.23;121.20;;;16.90;99.90;;;;;;5009440;28;20799;-52
2022/06/12 03:07:39;;;;;;;162.18;119.18;;;16.80;99.90;;;;;;5012601;28;20792;-53
2022/06/12 03:10:08;;;;;;;170.68;121.13;;;16.90;99.90;;;;;;5009122;28;20209;-53
2022/06/12 03:12:34;;;;;;;161.30;119.10;;;16.80;99.90;;;;;;5018019;28;20232;-53
2022/06/12 03:15:02;;;;;;;174.52;126.07;;;17.00;99.90;;;;;;5014869;28;20302;-53
2022/06/12 03:17:28;;;;;;;188.85;128.38;;;;;;;;;;5009615;28;20187;-52
2022/06/12 03:19:55;;;;;;;168.88;119.93;;;17.30;99.90;;;;;;5012374;28;20220;-53
2022/06/12 03:22:45;;;;;;;191.30;128.73;;;17.30;99.90;;;;;;5014583;28;20220;-53
2022/06/12 03:25:28;;;;;;;156.00;115.15;;;17.30;99.90;;;;;;5015892;28;20625;-53
2022/06/12 03:28:07;;;;;;;173.55;122.22;;;17.50;99.90;;;;;;5015947;28;20222;-52
2022/06/12 03:30:40;;;;;;;174.30;124.15;;;17.40;99.90;;;;;;5006507;28;20212;-52
2022/06/12 03:33:30;;;;;;;200.02;132.40;;;17.20;99.90;;;;;;5014196;28;20303;-52
2022/06/12 03:36:06;;;;;;;160.18;116.50;;;17.30;99.90;;;;;;5011188;28;20306;-52
2022/06/12 03:38:56;;;;;;;163.15;119.72;;;17.40;99.90;;;;;;5015362;28;20212;-52
2022/06/12 03:41:32;;;;;;;194.38;132.52;;;17.30;99.90;;;;;;5014284;28;20299;-52
2022/06/12 03:44:23;;;;;;;154.45;118.85;;;17.40;99.90;;;;;;5013349;28;20643;-53
2022/06/12 03:47:29;;;;;;;193.05;130.15;;;17.70;99.90;;;;;;5024307;28;20335;-53
2022/06/12 03:49:54;;;;;;;159.77;117.95;;;;;;;;;;5012515;28;20248;-52
2022/06/12 03:52:54;;;;;;;169.02;123.20;;;17.70;99.90;;;;;;5014306;28;20252;-53
2022/06/12 03:58:21;;;;;;;189.68;129.27;;;17.90;99.90;;;;;;4996187;28;20348;-52
2022/06/12 04:00:49;;;;;;;176.38;126.47;;;18.00;99.90;;;;;;5005231;28;20224;-53
2022/06/12 04:03:38;;;;;;;197.70;136.73;;;18.10;99.90;;;;;;4994601;28;20209;-53
2022/06/12 04:06:06;;;;;;;198.50;133.77;;;18.20;99.90;;;;;;4999993;28;20217;-53
2022/06/12 04:08:37;;;;;;;168.50;124.82;;;18.30;99.90;;;;;;5000420;28;20200;-53
2022/06/12 04:11:05;;;;;;;173.32;128.75;;;18.40;99.90;;;;;;5000471;28;20404;-53
2022/06/12 04:13:31;;;;;;;167.73;125.38;;;18.50;99.90;;;;;;4999175;28;20251;-53
2022/06/12 04:16:14;;;;;;;203.00;139.25;;;18.70;98.10;;;;;;4998032;28;20645;-53
2022/06/12 04:18:40;;;;;;;162.90;123.65;;;;;;;;;;5004308;28;20220;-53
2022/06/12 04:21:15;;;;;;;191.23;133.68;;;18.80;79.90;;;;;;4993523;28;20231;-51
2022/06/12 04:24:06;;;;;;;187.93;136.20;;;18.70;86.90;;;;;;4995103;28;20216;-53
2022/06/12 04:26:53;;;;;;;199.55;140.23;;;18.90;89.80;;;;;;5004029;28;20578;-53
2022/06/12 04:29:25;;;;;;;209.45;144.07;;;19.00;64.40;;;;;;4997443;28;20244;-53
2022/06/12 04:31:55;;;;;;;201.13;141.50;;;19.00;68.70;;;;;;5010949;28;20221;-53
2022/06/12 04:34:33;;;;;;;201.15;143.63;;;18.80;89.00;;;;;;4999806;28;20507;-53
2022/06/12 04:37:03;;;;;;;194.75;141.60;;;18.10;65.10;;;;;;5002005;28;20216;-53
2022/06/12 04:39:33;;;;;;;204.27;141.38;;;19.00;65.20;;;;;;5002144;28;20292;-53
2022/06/12 04:42:00;;;;;;;207.95;143.75;;;19.10;88.30;;;;;;5000264;28;20216;-53
2022/06/12 04:44:26;;;;;;;176.90;133.20;;;19.10;79.30;;;;;;5005799;28;20203;-53
2022/06/12 04:46:54;;;;;;;196.57;140.95;;;19.20;64.00;;;;;;5001555;28;20230;-53
2022/06/12 04:49:23;;;;;;;209.85;145.00;;;19.30;38.40;;;;;;5000963;28;20217;-53
2022/06/12 04:51:51;;;;;;;217.48;150.85;;;19.40;29.50;;;;;;5002229;28;20303;-53
2022/06/12 04:54:17;;;;;;;199.13;142.40;;;19.50;21.80;;;;;;5000057;28;20578;-53
2022/06/12 04:56:43;;;;;;;224.85;156.52;;;19.80;31.60;;;;;;5000340;28;20476;-53
2022/06/12 04:59:10;;;;;;;232.63;160.15;;;21.30;1.00;;;;;;5000088;28;20289;-53
2022/06/12 05:01:36;;;;;;;205.35;156.57;;;;;;;;;;4996547;28;20231;-53
2022/06/12 05:04:05;;;;;;;214.13;159.32;;;20.00;1.00;;;;;;4998319;28;20217;-52
2022/06/12 05:06:32;;;;;;;217.05;153.82;;;20.20;1.00;;;;;;4996769;28;20685;-52
2022/06/12 05:08:58;;;;;;;218.07;154.00;;;20.30;1.00;;;;;;5002846;28;20221;-53
2022/06/12 05:11:24;;;;;;;232.70;161.25;;;20.50;1.00;;;;;;4998888;28;20689;-53
2022/06/12 05:13:50;;;;;;;224.82;156.55;;;20.50;1.00;;;;;;5003125;28;20208;-53
2022/06/12 05:16:27;;;;;;;223.32;156.77;;;20.50;1.00;;;;;;4998295;28;20235;-53
2022/06/12 05:18:53;;;;;;;215.77;154.77;;;;;;;;;;5002016;28;20220;-51
2022/06/12 05:21:18;;;;;;;235.63;166.65;;;20.90;1.00;;;;;;5002420;28;20213;-53
2022/06/12 05:23:44;;;;;;;234.75;166.73;;;20.70;1.00;;;;;;4995673;28;20304;-53
2022/06/12 05:26:14;;;;;;;184.25;144.25;;;20.60;1.00;;;;;;5003150;28;20230;-52
2022/06/12 05:28:40;;;;;;;203.90;148.55;;;;;;;;;;5004897;28;20304;-52
2022/06/12 05:31:05;;;;;;;192.35;146.63;;;20.40;1.00;;;;;;4997808;28;20355;-53
2022/06/12 05:33:31;;;;;;;226.82;159.40;;;20.60;1.00;;;;;;5000245;28;20232;-53
2022/06/12 05:35:56;;;;;;;237.98;163.23;;;20.40;1.00;;;;;;4999734;28;20224;-52
2022/06/12 05:38:22;;;;;;;229.57;162.45;;;;;;;;;;4999618;28;20657;-52
2022/06/12 05:40:48;;;;;;;216.48;154.20;;;;;;;;;;4997607;28;20225;-53
2022/06/12 05:43:14;;;;;;;239.77;164.95;;;;;;;;;;4998787;28;20272;-53
2022/06/12 05:45:39;;;;;;;219.50;161.82;;;20.90;99.90;;;;;;5000492;28;20216;-53
2022/06/12 05:48:09;;;;;;;242.65;166.60;;;20.90;1.00;;;;;;5001509;28;20586;-52
2022/06/12 05:50:43;;;;;;;228.25;162.43;;;21.20;1.00;;;;;;5003287;28;20268;-52
2022/06/12 05:53:09;;;;;;;237.88;170.10;;;21.30;99.90;;;;;;5018012;28;20267;-52
2022/06/12 05:55:35;;;;;;;223.27;160.95;;;21.10;1.00;;;;;;5030536;28;20378;-52
2022/06/12 05:58:01;;;;;;;216.98;164.27;;;;;;;;;;5030404;28;20220;-52
2022/06/12 06:00:30;;;;;;;196.40;157.75;;;21.20;99.90;;;;;;5030536;28;20814;-53
2022/06/12 06:02:56;;;;;;;227.88;162.85;;;21.20;1.00;;;;;;5030492;28;20599;-52
2022/06/12 06:05:22;;;;;;;233.32;164.30;;;21.40;99.90;;;;;;5031273;28;20177;-53
2022/06/12 06:07:48;;;;;;;211.15;155.23;;;;;;;;;;5030331;28;20231;-53
2022/06/12 06:10:18;;;;;;;209.85;154.57;;;21.10;99.90;;;;;;5030468;28;20251;-53
2022/06/12 06:12:44;;;;;;;232.18;162.95;;;;;;;;;;5029907;28;20220;-51
2022/06/12 06:15:10;;;;;;;221.90;167.45;;;21.30;99.90;;;;;;5030283;28;20227;-53
2022/06/12 06:17:37;;;;;;;194.05;150.25;;;21.60;99.90;;;;;;5010534;28;20475;-53
2022/06/12 06:20:04;;;;;;;219.93;157.35;;;22.00;99.90;;;;;;5002924;28;20265;-54
2022/06/12 06:22:29;;;;;;;255.60;175.50;;;21.70;1.00;;;;;;5004209;28;20212;-53
2022/06/12 06:24:55;;;;;;;225.48;159.45;;;;;;;;;;5009269;28;20655;-54
2022/06/12 06:27:21;;;;;;;246.75;170.20;;;;;;;;;;5015417;28;20216;-53
2022/06/12 06:29:46;;;;;;;212.30;157.75;;;21.90;1.00;;;;;;5008943;28;20184;-54
2022/06/12 06:32:12;;;;;;;239.80;180.80;;;22.30;1.00;;;;;;5010665;28;20648;-54
2022/06/12 06:34:39;;;;;;;243.85;172.57;;;22.00;99.90;;;;;;5010208;28;20209;-53
2022/06/12 06:37:08;;;;;;;258.55;177.48;;;22.10;99.90;;;;;;5010192;28;20255;-51
2022/06/12 06:39:34;;;;;;;231.25;166.55;;;22.50;99.90;;;;;;5010569;28;20220;-52
2022/06/12 06:42:00;;;;;;;241.50;168.15;;;;;;;;;;5010442;28;20216;-52
2022/06/12 06:47:10;;;;;;;234.63;167.15;;;22.60;1.00;;;;;;5010421;28;20204;-53
2022/06/12 06:49:36;;;;;;;242.48;172.20;;;22.50;99.90;;;;;;5010286;28;20585;-53
2022/06/12 06:52:03;;;;;;;251.23;174.45;;;22.70;1.00;;;;;;5010021;28;20212;-52
2022/06/12 06:54:29;;;;;;;251.63;178.90;;;22.80;1.00;;;;;;5010125;28;20221;-52
2022/06/12 06:56:55;;;;;;;256.83;180.38;;;;;;;;;;5010073;28;20216;-53
2022/06/12 06:59:20;;;;;;;261.60;183.73;;;22.70;1.00;;;;;;5009593;28;20279;-54
2022/06/12 07:01:46;;;;;;;242.35;181.60;;;;;;;;;;5010293;28;20875;-54
2022/06/12 07:04:12;;;;;;;232.23;176.07;;;22.90;99.90;;;;;;5010366;28;20212;-54
2022/06/12 07:06:38;;;;;;;259.13;190.20;;;22.80;1.00;;;;;;5010226;28;20228;-54
2022/06/12 07:09:04;;;;;;;255.63;191.60;;;22.90;79.40;;;;;;5008783;28;20216;-54
2022/06/12 07:11:30;;;;;;;249.95;187.63;;;23.40;1.00;;;;;;5010228;28;20178;-53
2022/06/12 07:13:56;;;;;;;270.58;198.90;;;23.20;87.80;;;;;;5010001;28;20578;-54
2022/06/12 07:16:23;;;;;;;255.40;189.23;;;23.40;99.90;;;;;;4999215;28;20268;-54
2022/06/12 07:18:49;;;;;;;265.00;193.68;;;23.50;1.00;;;;;;4990180;28;20309;-54
2022/06/12 07:21:14;;;;;;;283.58;205.20;;;23.60;99.90;;;;;;4990455;28;20304;-53
2022/06/12 07:23:41;;;;;;;258.60;200.93;;;24.00;1.00;;;;;;4990270;28;20181;-53
2022/06/12 07:26:14;;;;;;;410.38;254.60;;;23.90;99.90;;;;;;4997985;28;21217;-52
2022/06/12 07:28:40;;;;;;;366.80;250.27;;;;;;;;;;4979537;28;20228;-52
2022/06/12 07:31:07;;;;;;;299.95;213.05;;;24.20;99.90;;;;;;4983488;28;20208;-53
2022/06/12 07:33:33;;;;;;;410.52;260.52;;;24.70;99.90;;;;;;4989476;28;21071;-53
2022/06/12 07:35:59;;;;;;;407.92;262.98;;;24.80;99.90;;;;;;4985972;28;20229;-52
2022/06/12 07:38:27;;;;;;;359.42;241.15;;;24.70;1.00;;;;;;4991103;28;20217;-52
2022/06/12 07:40:57;;;;;;;369.23;244.43;;;24.70;19.50;;;;;;4987282;28;20609;-52
2022/06/12 07:43:24;;;;;;;431.45;268.58;;;24.70;1.00;;;;;;4979482;28;20232;-51
2022/06/12 07:45:51;;;;;;;330.42;223.95;;;24.70;1.00;;;;;;4983018;28;20678;-52
2022/06/12 07:48:18;;;;;;;342.92;244.80;;;;;;;;;;4992964;28;20245;-52
2022/06/12 07:50:44;;;;;;;336.95;241.70;;;;;;;;;;4994661;28;20174;-51
2022/06/12 07:53:11;;;;;;;302.45;221.90;;;24.50;1.00;;;;;;4997215;28;20251;-52
2022/06/12 07:55:37;;;;;;;359.13;260.92;;;24.60;99.90;;;;;;4991193;28;20255;-52
2022/06/12 07:58:03;;;;;;;296.58;236.40;;;24.60;1.00;;;;;;5004857;28;20331;-51
2022/06/12 08:00:29;;;;;;;278.02;215.18;;;24.50;1.00;;;;;;5013752;28;20224;-52
2022/06/12 08:02:55;;;;;;;275.02;213.95;;;;;;;;;;5013523;28;20235;-51
2022/06/12 08:05:22;;;;;;;287.33;227.18;;;24.10;1.00;;;;;;5013703;28;20256;-51
2022/06/12 08:07:48;;;;;;;278.55;220.63;;;24.60;1.00;;;;;;5013225;28;20227;-51
2022/06/12 08:10:14;;;;;;;281.50;226.77;;;24.40;1.00;;;;;;5013358;28;20225;-51
2022/06/12 08:12:43;;;;;;;282.45;221.02;;;24.10;99.90;;;;;;5013156;28;20247;-51
2022/06/12 08:15:13;;;;;;;276.45;211.75;;;24.10;99.90;;;;;;5013138;28;20220;-51
2022/06/12 08:17:38;;;;;;;280.25;225.38;;;;;;;;;;5013163;28;20205;-51
2022/06/12 08:22:50;;;;;;;323.98;240.68;;;;;;;;;;4990345;28;20774;-55
2022/06/12 08:25:15;;;;;;;335.15;246.10;;;;;;;;;;4986644;28;20222;-56
2022/06/12 08:27:41;;;;;;;337.55;243.85;;;24.50;1.00;;;;;;4987580;28;20622;-56
2022/06/12 08:30:08;;;;;;;376.88;254.80;;;24.40;1.00;;;;;;4987025;28;20213;-56
2022/06/12 08:32:35;;;;;;;344.27;228.48;;;24.50;99.90;;;;;;4989159;28;20184;-56
2022/06/12 08:35:05;;;;;;;329.88;240.07;;;24.60;1.00;;;;;;4991336;28;20255;-56
2022/06/12 08:37:36;;;;;;;329.35;242.07;;;24.40;1.00;;;;;;4997647;28;20582;-56
2022/06/12 08:40:03;;;;;;;363.77;249.10;;;24.40;1.00;;;;;;4990142;28;20205;-56
2022/06/12 08:42:36;;;;;;;355.52;254.65;;;24.20;17.40;;;;;;4991643;28;21430;-56
2022/06/12 08:45:10;;;;;;;368.50;254.20;;;24.30;1.00;;;;;;4992242;28;20308;-56
2022/06/12 08:47:45;;;;;;;357.30;256.10;;;24.30;1.00;;;;;;4981340;28;20195;-56
2022/06/12 08:50:35;;;;;;;346.30;251.00;;;24.30;99.90;;;;;;4990623;28;20213;-56
2022/06/12 08:53:30;;;;;;;394.55;259.98;;;24.10;1.00;;;;;;5005608;28;20256;-56
2022/06/12 08:56:36;;;;;;;369.23;264.85;;;24.50;1.00;;;;;;4985113;28;20240;-56
2022/06/12 08:59:14;;;;;;;386.80;272.08;;;24.60;1.00;;;;;;4967699;28;20214;-56
2022/06/12 09:01:42;;;;;;;375.10;261.92;;;;;;;;;;4984807;28;20221;-56
2022/06/12 09:04:11;;;;;;;347.00;241.73;;;24.70;1.00;;;;;;4990979;28;20216;-56
2022/06/12 09:06:37;;;;;;;358.23;265.38;;;;;;;;;;4990548;28;20213;-56
2022/06/12 09:09:35;;;;;;;345.60;247.93;;;25.00;99.90;;;;;;4996723;28;20279;-56
2022/06/12 09:12:13;;;;;;;344.83;255.63;;;25.10;99.90;;;;;;4988774;28;20228;-56
2022/06/12 09:14:54;;;;;;;348.23;257.05;;;24.90;99.90;;;;;;4991784;28;20209;-56
2022/06/12 09:17:25;;;;;;;379.15;272.73;;;25.00;99.90;;;;;;4993251;28;20245;-56
2022/06/12 09:20:14;;;;;;;395.73;280.25;;;25.30;1.00;;;;;;4986027;28;20221;-56
2022/06/12 09:22:54;;;;;;;390.88;279.98;;;25.50;99.90;;;;;;4991971;28;20205;-56
2022/06/12 09:25:28;;;;;;;409.67;287.35;;;25.50;1.00;;;;;;4987140;28;20340;-56
2022/06/12 09:28:04;;;;;;;375.95;268.08;;;25.60;99.90;;;;;;4985224;28;20225;-56
2022/06/12 09:30:49;;;;;;;359.05;266.83;;;25.70;99.90;;;;;;4993191;28;20224;-56
2022/06/12 09:33:32;;;;;;;338.48;259.25;;;25.80;99.90;;;;;;4996671;28;20275;-58
2022/06/12 09:36:33;;;;;;;372.42;274.55;;;25.90;99.90;;;;;;4986435;28;20716;-55
2022/06/12 09:39:42;;;;;;;364.55;268.95;;;26.00;99.90;;;;;;4979677;28;20637;-56
2022/06/12 09:42:22;;;;;;;360.05;272.08;;;26.10;99.90;;;;;;4992866;28;20307;-56
2022/06/12 09:44:48;;;;;;;350.85;265.27;;;;;;;;;;4989384;28;20220;-55
2022/06/12 09:47:14;;;;;;;379.40;272.83;;;;;;;;;;4992275;28;20219;-55
2022/06/12 09:49:55;;;;;;;376.48;280.95;;;26.20;99.90;;;;;;4984492;28;20312;-55
2022/06/12 09:52:46;;;;;;;346.17;264.67;;;26.30;99.90;;;;;;4992287;28;20208;-55
2022/06/12 09:55:33;;;;;;;321.73;253.15;;;26.30;96.40;;;;;;5003776;28;20431;-55
2022/06/12 09:58:20;;;;;;;343.67;250.68;;;26.30;99.90;;;;;;4994454;28;20319;-55
2022/06/12 10:00:51;;;;;;;353.73;272.27;;;26.40;1.00;;;;;;4998934;28;20213;-55
2022/06/12 10:03:42;;;;;;;360.95;278.27;;;26.40;99.90;;;;;;4987869;28;20212;-55
2022/06/12 10:06:43;;;;;;;406.00;316.60;;;26.60;28.60;;;;;;4990594;28;21052;-55
2022/06/12 10:09:29;;;;;;;413.35;295.88;;;26.50;99.90;;;;;;4987676;28;20243;-55
2022/06/12 10:11:55;;;;;;;399.20;268.98;;;;;;;;;;4992121;28;20728;-55
2022/06/12 10:14:36;;;;;;;391.63;272.05;;;27.40;11.20;;;;;;4987331;28;20258;-51
2022/06/12 10:17:14;;;;;;;356.63;263.20;;;27.90;1.00;;;;;;5000417;28;20223;-52
2022/06/12 10:20:03;;;;;;;349.85;253.60;;;28.20;1.00;;;;;;4991454;28;20213;-51
2022/06/12 10:22:29;;;;;;;344.88;251.20;;;;;;;;;;4997162;28;20209;-52
2022/06/12 10:24:56;;;;;;;360.52;264.63;;;29.50;1.00;;;;;;4992277;28;20777;-52
2022/06/12 10:27:22;;;;;;;339.35;248.68;;;;;;;;;;4990826;28;20213;-51
2022/06/12 10:29:57;;;;;;;367.33;266.83;;;29.90;1.00;;;;;;4998919;28;20190;-54
2022/06/12 10:32:28;;;;;;;383.55;264.70;;;29.80;1.00;;;;;;4996338;28;20931;-51
2022/06/12 10:35:13;;;;;;;366.83;277.42;;;29.40;1.00;;;;;;4998533;28;20249;-52
2022/06/12 10:37:39;;;;;;;353.55;270.33;;;;;;;;;;5005534;28;20208;-52
2022/06/12 10:40:27;;;;;;;356.48;276.17;;;29.50;1.00;;;;;;4999745;28;20220;-54
2022/06/12 10:43:01;;;;;;;367.65;268.73;;;30.20;1.00;;;;;;4998464;28;20208;-52
2022/06/12 10:45:36;;;;;;;351.98;266.23;;;30.00;1.00;;;;;;4997911;28;20219;-52
2022/06/12 10:48:20;;;;;;;348.05;289.85;;;30.30;1.00;;;;;;5001812;28;20220;-52
2022/06/12 10:50:58;;;;;;;362.20;297.88;;;30.70;1.00;;;;;;4997431;28;20195;-52
2022/06/12 10:53:26;;;;;;;354.98;275.75;;;30.50;1.00;;;;;;4995029;28;20907;-52
2022/06/12 10:56:16;;;;;;;379.23;310.17;;;30.40;1.00;;;;;;5000958;28;20216;-52
2022/06/12 10:58:41;;;;;;;359.90;274.40;;;30.20;99.90;;;;;;4995294;28;21046;-52
2022/06/12 11:01:27;;;;;;;363.70;297.35;;;30.00;1.00;;;;;;5000010;28;20258;-51
2022/06/12 11:04:11;;;;;;;364.38;298.85;;;29.80;1.00;;;;;;5003294;28;20698;-52
2022/06/12 11:07:02;;;;;;;358.25;291.00;;;29.90;1.00;;;;;;4994953;28;20235;-52
2022/06/12 11:09:50;;;;;;;349.17;279.60;;;29.70;1.00;;;;;;5005541;28;20355;-52
2022/06/12 11:12:58;;;;;;;372.00;296.38;;;28.80;1.00;;;;;;5004578;28;20224;-52
2022/06/12 11:15:36;;;;;;;375.70;298.45;;;28.80;1.00;;;;;;4997365;28;20275;-52
2022/06/12 11:18:14;;;;;;;375.20;298.92;;;28.70;1.00;;;;;;5004119;28;20247;-51
2022/06/12 11:20:48;;;;;;;360.60;290.13;;;28.80;1.00;;;;;;5009527;28;20181;-51
2022/06/12 11:23:36;;;;;;;382.13;279.00;;;28.50;1.00;;;;;;5010122;28;20180;-52
2022/06/12 11:26:13;;;;;;;387.45;279.58;;;28.00;1.00;;;;;;5002397;28;20220;-52
2022/06/12 11:28:40;;;;;;;397.27;285.42;;;;;;;;;;4997218;28;20220;-53
2022/06/12 11:31:25;;;;;;;358.63;267.15;;;27.30;99.90;;;;;;4988628;28;20295;-53
2022/06/12 11:33:59;;;;;;;388.35;273.38;;;27.00;1.00;;;;;;4991322;28;20210;-53
2022/06/12 11:36:47;;;;;;;386.27;267.58;;;26.70;1.00;;;;;;4991365;28;20335;-53
2022/06/12 11:39:39;;;;;;;388.98;282.73;;;26.60;1.70;;;;;;4990622;28;20236;-53
2022/06/12 11:42:51;;;;;;;443.45;289.95;;;27.10;99.90;;;;;;4979788;28;20248;-53
2022/06/12 11:45:29;;;;;;;397.95;279.58;;;27.30;1.00;;;;;;4994982;28;20225;-53
2022/06/12 11:48:07;;;;;;;369.55;273.00;;;27.50;1.00;;;;;;4997200;28;20703;-53
2022/06/12 11:50:50;;;;;;;367.40;275.38;;;27.90;1.00;;;;;;5002154;28;20191;-53
2022/06/12 11:53:48;;;;;;;397.08;286.15;;;27.90;1.00;;;;;;4998345;28;20267;-53
2022/06/12 11:56:48;;;;;;;375.38;276.55;;;28.00;1.00;;;;;;4994063;28;20869;-53
2022/06/12 11:59:23;;;;;;;419.55;300.02;;;28.30;1.00;;;;;;4994471;28;20291;-53
2022/06/12 12:02:17;;;;;;;392.92;289.38;;;28.40;1.00;;;;;;4994922;28;20681;-53
2022/06/12 12:05:05;;;;;;;343.27;262.63;;;28.10;1.00;;;;;;5002024;28;20212;-53
2022/06/12 12:07:52;;;;;;;375.75;274.15;;;28.30;1.00;;;;;;4997301;28;20216;-53
2022/06/12 12:10:47;;;;;;;381.13;279.33;;;28.50;1.00;;;;;;5004547;28;20221;-53
2022/06/12 12:13:17;;;;;;;387.23;272.23;;;28.20;87.50;;;;;;5004074;28;20287;-53
2022/06/12 12:15:56;;;;;;;351.92;263.27;;;27.90;1.00;;;;;;5001259;28;20744;-53
2022/06/12 12:18:41;;;;;;;382.48;285.00;;;28.00;99.90;;;;;;4997797;28;20248;-53
2022/06/12 12:21:19;;;;;;;372.23;278.23;;;28.10;1.00;;;;;;4991665;28;20225;-53
2022/06/12 12:23:47;;;;;;;389.23;287.45;;;28.30;99.90;;;;;;4996991;28;20197;-53
2022/06/12 12:26:24;;;;;;;403.75;293.42;;;28.60;99.90;;;;;;4998753;28;20299;-53
2022/06/12 12:28:50;;;;;;;386.48;287.92;;;;;;;;;;5000575;28;20271;-53
2022/06/12 12:31:17;;;;;;;372.35;268.95;;;27.90;1.00;;;;;;5004081;28;20213;-53
2022/06/12 12:33:46;;;;;;;358.40;261.67;;;28.20;1.00;;;;;;4995734;28;20209;-53
2022/06/12 12:41:55;;;;;;;437.77;289.75;;;28.90;1.00;;;;;;4981470;28;20222;-53
2022/06/12 12:44:36;;;;;;;563.28;331.58;;;28.90;1.00;;;;;;4978146;28;20289;-53
2022/06/12 12:47:02;;;;;;;374.40;265.73;;;;;;;;;;4993646;28;20645;-53
2022/06/12 12:49:32;;;;;;;376.58;264.08;;;28.80;1.00;;;;;;4987337;28;20360;-53
2022/06/12 12:52:16;;;;;;;397.98;274.70;;;29.00;99.90;;;;;;4982487;28;20221;-55
2022/06/12 12:54:47;;;;;;;404.63;280.80;;;29.00;1.00;;;;;;4983381;28;20252;-54
2022/06/12 12:57:15;;;;;;;378.45;266.98;;;28.90;1.00;;;;;;4992109;28;21282;-54
2022/06/12 12:59:47;;;;;;;415.70;292.58;;;29.10;99.90;;;;;;4994765;28;20173;-55
2022/06/12 13:02:30;;;;;;;371.17;276.67;;;28.90;1.00;;;;;;4995888;28;20778;-55
2022/06/12 13:05:18;;;;;;;392.80;282.90;;;29.00;10.50;;;;;;4990701;28;20205;-55
2022/06/12 13:07:56;;;;;;;381.90;287.00;;;29.20;1.00;;;;;;4989546;28;20302;-54
2022/06/12 13:10:39;;;;;;;404.30;288.15;;;29.40;1.00;;;;;;4992412;28;20224;-55
2022/06/12 13:13:29;;;;;;;343.45;274.60;;;29.10;99.90;;;;;;4990165;28;20263;-54
2022/06/12 13:16:16;;;;;;;405.88;293.20;;;29.20;1.00;;;;;;4989850;28;20788;-55
2022/06/12 13:18:55;;;;;;;348.65;284.35;;;29.60;1.00;;;;;;4987143;28;20232;-55
2022/06/12 13:21:40;;;;;;;379.10;295.15;;;29.60;1.00;;;;;;4999779;28;20853;-55
2022/06/12 13:24:27;;;;;;;374.35;297.27;;;29.80;99.90;;;;;;4990742;28;20235;-55